createdAt,value
2017-07-19T00:00:11.368Z,98.1
2017-07-19T00:00:32.021Z,98.2
2017-07-19T00:00:52.663Z,98.6
2017-07-19T00:01:13.308Z,98.4
2017-07-19T00:01:33.955Z,98.4
2017-07-19T00:01:54.646Z,98
2017-07-19T00:02:15.321Z,98.4
2017-07-19T00:02:35.975Z,98.2
2017-07-19T00:02:56.658Z,98.7
2017-07-19T00:03:17.314Z,98.7
2017-07-19T00:03:37.988Z,98.2
2017-07-19T00:03:58.623Z,98.6
2017-07-19T00:04:19.309Z,97.9
2017-07-19T00:04:39.942Z,98
2017-07-19T00:05:00.593Z,98.2
2017-07-19T00:05:21.235Z,98
2017-07-19T00:05:41.880Z,97.9
2017-07-19T00:06:02.533Z,98.5
2017-07-19T00:06:23.177Z,98.5
2017-07-19T00:06:43.835Z,99
2017-07-19T00:07:04.494Z,99
2017-07-19T00:07:25.141Z,98.8
2017-07-19T00:07:45.781Z,98.9
2017-07-19T00:08:06.436Z,98
2017-07-19T00:08:27.081Z,98.3
2017-07-19T00:08:47.740Z,97.9
2017-07-19T00:09:08.392Z,97.9
2017-07-19T00:09:29.050Z,98.2
2017-07-19T00:09:49.702Z,98.2
2017-07-19T00:10:10.358Z,98.2
2017-07-19T00:10:31.049Z,97.9
2017-07-19T00:10:51.707Z,97.9
2017-07-19T00:11:12.365Z,98.5
2017-07-19T00:11:33.014Z,98.5
2017-07-19T00:11:53.654Z,98.2
2017-07-19T00:12:14.297Z,98.5
2017-07-19T00:12:34.929Z,98.6
2017-07-19T00:12:55.584Z,98.3
2017-07-19T00:13:16.226Z,98.7
2017-07-19T00:13:36.893Z,98.2
2017-07-19T00:13:57.546Z,98.9
2017-07-19T00:14:18.188Z,98.7
2017-07-19T00:14:38.831Z,99.1
2017-07-19T00:14:59.467Z,99.7
2017-07-19T00:15:20.106Z,99.9
2017-07-19T00:15:40.774Z,99.8
2017-07-19T00:16:01.420Z,100
2017-07-19T00:16:22.065Z,100
2017-07-19T00:16:42.704Z,100
2017-07-19T00:17:03.388Z,100
2017-07-19T00:17:24.055Z,99.7
2017-07-19T00:17:44.704Z,100
2017-07-19T00:18:05.374Z,100
2017-07-19T00:18:26.043Z,100
2017-07-19T00:18:46.692Z,100
2017-07-19T00:19:07.328Z,100
2017-07-19T00:19:27.992Z,100
2017-07-19T00:19:48.634Z,100
2017-07-19T00:20:09.277Z,100
2017-07-19T00:20:29.936Z,100
2017-07-19T00:20:50.581Z,100
2017-07-19T00:21:11.230Z,100
2017-07-19T00:21:31.892Z,100
2017-07-19T00:21:52.533Z,100
2017-07-19T00:22:13.181Z,100
2017-07-19T00:22:33.823Z,100
2017-07-19T00:22:54.483Z,100
2017-07-19T00:23:15.130Z,100
2017-07-19T00:23:35.776Z,100
2017-07-19T00:23:56.410Z,100
2017-07-19T00:24:17.063Z,100
2017-07-19T00:24:37.742Z,100
2017-07-19T00:24:58.412Z,100
2017-07-19T00:25:19.064Z,100
2017-07-19T00:25:39.701Z,100
2017-07-19T00:26:00.337Z,100
2017-07-19T00:26:20.977Z,100
2017-07-19T00:26:41.630Z,100
2017-07-19T00:27:02.314Z,100
2017-07-19T00:27:22.966Z,100
2017-07-19T00:27:43.631Z,100
2017-07-19T00:28:04.328Z,100
2017-07-19T00:28:24.971Z,99.9
2017-07-19T00:28:45.612Z,100
2017-07-19T00:29:06.293Z,100
2017-07-19T00:29:26.940Z,100
2017-07-19T00:29:47.583Z,99.9
2017-07-19T00:30:08.227Z,100
2017-07-19T00:30:28.865Z,100
2017-07-19T00:30:49.525Z,99.7
2017-07-19T00:31:10.186Z,100
2017-07-19T00:31:30.838Z,99.9
2017-07-19T00:31:51.505Z,100
2017-07-19T00:32:12.164Z,100
2017-07-19T00:32:32.815Z,99.7
2017-07-19T00:32:53.463Z,100
2017-07-19T00:33:14.104Z,99.9
2017-07-19T00:33:34.756Z,100
2017-07-19T00:33:55.395Z,100
2017-07-19T00:34:16.028Z,100
2017-07-19T00:34:36.670Z,100
2017-07-19T00:34:57.324Z,100
2017-07-19T00:35:17.976Z,100
2017-07-19T00:35:38.644Z,100
2017-07-19T00:35:59.282Z,100
2017-07-19T00:36:19.934Z,100
2017-07-19T00:36:40.591Z,100
2017-07-19T00:37:01.224Z,100
2017-07-19T00:37:21.870Z,100
2017-07-19T00:37:42.538Z,100
2017-07-19T00:38:03.182Z,100
2017-07-19T00:38:23.816Z,100
2017-07-19T00:38:44.485Z,100
2017-07-19T00:39:05.137Z,100
2017-07-19T00:39:25.816Z,100
2017-07-19T00:39:46.465Z,100
2017-07-19T00:40:07.147Z,100
2017-07-19T00:40:27.786Z,100
2017-07-19T00:40:48.423Z,100
2017-07-19T00:41:09.088Z,100
2017-07-19T00:41:29.737Z,100
2017-07-19T00:41:50.372Z,100
2017-07-19T00:42:11.017Z,100
2017-07-19T00:42:31.657Z,100
2017-07-19T00:42:52.299Z,100
2017-07-19T00:43:12.951Z,100
2017-07-19T00:43:33.605Z,100
2017-07-19T00:43:54.253Z,100
2017-07-19T00:44:14.901Z,100
2017-07-19T00:44:35.535Z,100
2017-07-19T00:44:56.181Z,100
2017-07-19T00:45:16.861Z,100
2017-07-19T00:45:37.493Z,100
2017-07-19T00:45:58.139Z,100
2017-07-19T00:46:18.782Z,100
2017-07-19T00:46:39.423Z,100
2017-07-19T00:47:00.083Z,100
2017-07-19T00:47:20.725Z,100
2017-07-19T00:47:41.365Z,100
2017-07-19T00:48:02.021Z,100
2017-07-19T00:48:22.688Z,100
2017-07-19T00:48:43.320Z,100
2017-07-19T00:49:03.959Z,100
2017-07-19T00:49:24.604Z,100
2017-07-19T00:49:45.251Z,100
2017-07-19T00:50:05.894Z,100
2017-07-19T00:50:26.540Z,100
2017-07-19T00:50:47.188Z,100
2017-07-19T00:51:07.881Z,100
2017-07-19T00:51:28.549Z,100
2017-07-19T00:51:49.198Z,100
2017-07-19T00:52:09.865Z,100
2017-07-19T00:52:30.520Z,100
2017-07-19T00:52:51.174Z,100
2017-07-19T00:53:11.813Z,100
2017-07-19T00:53:32.446Z,100
2017-07-19T00:53:53.097Z,100
2017-07-19T00:54:13.730Z,100
2017-07-19T00:54:34.376Z,100
2017-07-19T00:54:55.044Z,100
2017-07-19T00:55:15.693Z,100
2017-07-19T00:55:36.328Z,100
2017-07-19T00:55:56.972Z,100
2017-07-19T00:56:17.628Z,100
2017-07-19T00:56:38.264Z,100
2017-07-19T00:56:58.924Z,100
2017-07-19T00:57:19.569Z,100
2017-07-19T00:57:40.212Z,100
2017-07-19T00:58:00.851Z,100
2017-07-19T00:58:23.314Z,100
2017-07-19T00:58:43.984Z,100
2017-07-19T00:59:04.661Z,100
2017-07-19T00:59:25.304Z,100
2017-07-19T00:59:45.952Z,100
2017-07-19T01:00:06.627Z,100
2017-07-19T01:00:27.293Z,100
2017-07-19T01:00:47.948Z,100
2017-07-19T01:01:08.605Z,100
2017-07-19T01:01:29.245Z,100
2017-07-19T01:01:49.903Z,100
2017-07-19T01:02:10.556Z,100
2017-07-19T01:02:31.217Z,100
2017-07-19T01:02:51.875Z,100
2017-07-19T01:03:12.516Z,100
2017-07-19T01:03:33.176Z,100
2017-07-19T01:03:53.834Z,100
2017-07-19T01:04:14.479Z,100
2017-07-19T01:04:35.111Z,100
2017-07-19T01:04:55.758Z,100
2017-07-19T01:05:16.399Z,100
2017-07-19T01:05:37.058Z,100
2017-07-19T01:05:57.751Z,100
2017-07-19T01:06:18.391Z,100
2017-07-19T01:06:39.031Z,100
2017-07-19T01:06:59.686Z,100
2017-07-19T01:07:20.342Z,100
2017-07-19T01:07:40.987Z,100
2017-07-19T01:08:01.661Z,100
2017-07-19T01:08:22.309Z,100
2017-07-19T01:08:42.950Z,100
2017-07-19T01:09:03.599Z,100
2017-07-19T01:09:24.260Z,100
2017-07-19T01:09:44.899Z,100
2017-07-19T01:10:05.561Z,100
2017-07-19T01:10:26.229Z,100
2017-07-19T01:10:46.881Z,100
2017-07-19T01:11:07.532Z,100
2017-07-19T01:11:28.186Z,100
2017-07-19T01:11:48.850Z,100
2017-07-19T01:12:09.501Z,100
2017-07-19T01:12:30.147Z,100
2017-07-19T01:12:50.794Z,100
2017-07-19T01:13:11.453Z,100
2017-07-19T01:13:32.087Z,100
2017-07-19T01:13:52.725Z,100
2017-07-19T01:14:13.372Z,100
2017-07-19T01:14:34.023Z,100
2017-07-19T01:14:54.654Z,100
2017-07-19T01:15:15.310Z,100
2017-07-19T01:15:35.967Z,100
2017-07-19T01:15:56.618Z,100
2017-07-19T01:16:17.269Z,100
2017-07-19T01:16:37.914Z,100
2017-07-19T01:16:58.555Z,100
2017-07-19T01:17:19.200Z,100
2017-07-19T01:17:39.841Z,100
2017-07-19T01:18:00.487Z,100
2017-07-19T01:18:21.132Z,100
2017-07-19T01:18:41.770Z,100
2017-07-19T01:19:02.429Z,100
2017-07-19T01:19:23.068Z,100
2017-07-19T01:19:43.713Z,100
2017-07-19T01:20:04.364Z,100
2017-07-19T01:20:25.005Z,100
2017-07-19T01:20:45.653Z,100
2017-07-19T01:21:06.306Z,100
2017-07-19T01:21:26.962Z,100
2017-07-19T01:21:47.605Z,100
2017-07-19T01:22:08.240Z,100
2017-07-19T01:22:28.882Z,100
2017-07-19T01:22:49.596Z,100
2017-07-19T01:23:10.252Z,100
2017-07-19T01:23:30.920Z,100
2017-07-19T01:23:51.557Z,100
2017-07-19T01:24:12.232Z,100
2017-07-19T01:24:32.894Z,100
2017-07-19T01:24:53.567Z,100
2017-07-19T01:25:14.201Z,100
2017-07-19T01:25:34.858Z,100
2017-07-19T01:25:55.531Z,100
2017-07-19T01:26:16.165Z,100
2017-07-19T01:26:36.833Z,100
2017-07-19T01:26:57.498Z,100
2017-07-19T01:27:18.140Z,100
2017-07-19T01:27:38.778Z,100
2017-07-19T01:27:59.450Z,100
2017-07-19T01:28:20.099Z,100
2017-07-19T01:28:40.740Z,100
2017-07-19T01:29:01.396Z,100
2017-07-19T01:29:22.045Z,100
2017-07-19T01:29:42.697Z,100
2017-07-19T01:30:03.394Z,100
2017-07-19T01:30:24.100Z,100
2017-07-19T01:30:44.751Z,100
2017-07-19T01:31:05.395Z,100
2017-07-19T01:31:26.039Z,100
2017-07-19T01:31:46.685Z,100
2017-07-19T01:32:07.349Z,100
2017-07-19T01:32:28.023Z,100
2017-07-19T01:32:48.670Z,100
2017-07-19T01:33:09.315Z,100
2017-07-19T01:33:29.977Z,100
2017-07-19T01:33:50.617Z,100
2017-07-19T01:34:11.279Z,100
2017-07-19T01:34:31.946Z,100
2017-07-19T01:34:52.612Z,100
2017-07-19T01:35:13.251Z,100
2017-07-19T01:35:33.895Z,100
2017-07-19T01:35:54.566Z,100
2017-07-19T01:36:15.208Z,100
2017-07-19T01:36:35.841Z,100
2017-07-19T01:36:56.503Z,100
2017-07-19T01:37:17.148Z,100
2017-07-19T01:37:37.817Z,100
2017-07-19T01:37:58.457Z,100
2017-07-19T01:38:19.128Z,100
2017-07-19T01:38:39.769Z,100
2017-07-19T01:39:00.414Z,100
2017-07-19T01:39:21.067Z,100
2017-07-19T01:39:41.702Z,100
2017-07-19T01:40:02.332Z,100
2017-07-19T01:40:22.996Z,100
2017-07-19T01:40:43.645Z,100
2017-07-19T01:41:04.290Z,100
2017-07-19T01:41:24.926Z,100
2017-07-19T01:41:45.565Z,100
2017-07-19T01:42:06.213Z,100
2017-07-19T01:42:26.850Z,100
2017-07-19T01:42:47.515Z,100
2017-07-19T01:43:08.178Z,100
2017-07-19T01:43:28.834Z,100
2017-07-19T01:43:49.479Z,100
2017-07-19T01:44:10.130Z,100
2017-07-19T01:44:30.783Z,100
2017-07-19T01:44:51.435Z,100
2017-07-19T01:45:12.105Z,100
2017-07-19T01:45:33.513Z,100
2017-07-19T01:45:54.166Z,100
2017-07-19T01:46:14.805Z,100
2017-07-19T01:46:35.461Z,100
2017-07-19T01:46:56.094Z,100
2017-07-19T01:47:16.737Z,100
2017-07-19T01:47:37.386Z,100
2017-07-19T01:47:58.041Z,100
2017-07-19T01:48:18.711Z,100
2017-07-19T01:48:39.370Z,100
2017-07-19T01:49:00.030Z,100
2017-07-19T01:49:20.715Z,100
2017-07-19T01:49:41.373Z,100
2017-07-19T01:50:02.037Z,100
2017-07-19T01:50:22.683Z,100
2017-07-19T01:50:43.329Z,100
2017-07-19T01:51:03.996Z,100
2017-07-19T01:51:24.647Z,100
2017-07-19T01:51:45.305Z,100
2017-07-19T01:52:05.954Z,100
2017-07-19T01:52:26.607Z,100
2017-07-19T01:52:47.276Z,100
2017-07-19T01:53:07.934Z,100
2017-07-19T01:53:28.614Z,100
2017-07-19T01:53:49.276Z,100
2017-07-19T01:54:09.949Z,100
2017-07-19T01:54:30.601Z,100
2017-07-19T01:54:51.269Z,100
2017-07-19T01:55:11.902Z,100
2017-07-19T01:55:32.539Z,100
2017-07-19T01:55:53.201Z,100
2017-07-19T01:56:13.859Z,100
2017-07-19T01:56:34.521Z,100
2017-07-19T01:56:55.495Z,100
2017-07-19T01:57:16.159Z,100
2017-07-19T01:57:36.805Z,100
2017-07-19T01:57:57.452Z,100
2017-07-19T01:58:18.130Z,100
2017-07-19T01:58:38.763Z,100
2017-07-19T01:58:59.423Z,100
2017-07-19T01:59:20.102Z,100
2017-07-19T01:59:40.738Z,100
2017-07-19T02:00:01.399Z,100
2017-07-19T02:00:22.046Z,100
2017-07-19T02:00:42.704Z,100
2017-07-19T02:01:03.345Z,100
2017-07-19T02:01:24.048Z,100
2017-07-19T02:01:44.685Z,100
2017-07-19T02:02:05.360Z,100
2017-07-19T02:02:26.014Z,100
2017-07-19T02:02:46.673Z,100
2017-07-19T02:03:07.405Z,100
2017-07-19T02:03:28.064Z,100
2017-07-19T02:03:48.726Z,100
2017-07-19T02:04:09.377Z,100
2017-07-19T02:04:30.050Z,100
2017-07-19T02:04:50.705Z,100
2017-07-19T02:05:11.342Z,100
2017-07-19T02:05:32.007Z,100
2017-07-19T02:05:52.686Z,100
2017-07-19T02:06:13.333Z,100
2017-07-19T02:06:34.005Z,100
2017-07-19T02:06:54.659Z,100
2017-07-19T02:07:15.304Z,100
2017-07-19T02:07:35.964Z,100
2017-07-19T02:07:56.625Z,100
2017-07-19T02:08:17.288Z,100
2017-07-19T02:08:37.942Z,100
2017-07-19T02:08:58.574Z,100
2017-07-19T02:09:19.226Z,100
2017-07-19T02:09:39.872Z,100
2017-07-19T02:10:00.521Z,100
2017-07-19T02:10:21.204Z,100
2017-07-19T02:10:41.854Z,100
2017-07-19T02:11:02.510Z,100
2017-07-19T02:11:23.155Z,100
2017-07-19T02:11:43.793Z,100
2017-07-19T02:12:04.449Z,100
2017-07-19T02:12:25.099Z,100
2017-07-19T02:12:45.742Z,100
2017-07-19T02:13:06.399Z,100
2017-07-19T02:13:27.050Z,100
2017-07-19T02:13:47.697Z,100
2017-07-19T02:14:08.364Z,100
2017-07-19T02:14:29.015Z,100
2017-07-19T02:14:49.670Z,100
2017-07-19T02:15:10.324Z,100
2017-07-19T02:15:30.963Z,100
2017-07-19T02:15:51.614Z,100
2017-07-19T02:16:12.268Z,100
2017-07-19T02:16:32.919Z,100
2017-07-19T02:16:53.572Z,100
2017-07-19T02:17:14.238Z,100
2017-07-19T02:17:34.881Z,100
2017-07-19T02:17:55.530Z,100
2017-07-19T02:18:16.174Z,100
2017-07-19T02:18:36.823Z,100
2017-07-19T02:18:58.667Z,100
2017-07-19T02:19:19.677Z,100
2017-07-19T02:19:40.722Z,100
2017-07-19T02:20:02.196Z,100
2017-07-19T02:20:22.830Z,100
2017-07-19T02:20:43.497Z,100
2017-07-19T02:21:04.152Z,100
2017-07-19T02:21:24.835Z,100
2017-07-19T02:21:45.488Z,100
2017-07-19T02:22:06.146Z,100
2017-07-19T02:22:26.809Z,100
2017-07-19T02:22:47.470Z,100
2017-07-19T02:23:08.103Z,100
2017-07-19T02:23:28.749Z,100
2017-07-19T02:23:49.426Z,100
2017-07-19T02:24:10.100Z,100
2017-07-19T02:24:30.743Z,100
2017-07-19T02:24:51.394Z,100
2017-07-19T02:25:12.028Z,100
2017-07-19T02:25:32.724Z,100
2017-07-19T02:25:53.374Z,100
2017-07-19T02:26:14.020Z,100
2017-07-19T02:26:34.667Z,100
2017-07-19T02:26:55.299Z,100
2017-07-19T02:27:15.956Z,100
2017-07-19T02:27:36.629Z,100
2017-07-19T02:27:57.350Z,100
2017-07-19T02:28:18.137Z,100
2017-07-19T02:28:38.789Z,100
2017-07-19T02:28:59.439Z,100
2017-07-19T02:29:20.087Z,100
2017-07-19T02:29:40.735Z,100
2017-07-19T02:30:01.374Z,100
2017-07-19T02:30:22.037Z,100
2017-07-19T02:30:42.724Z,100
2017-07-19T02:31:03.389Z,100
2017-07-19T02:31:24.041Z,100
2017-07-19T02:31:44.703Z,100
2017-07-19T02:32:05.337Z,100
2017-07-19T02:32:25.982Z,100
2017-07-19T02:32:46.635Z,100
2017-07-19T02:33:07.307Z,100
2017-07-19T02:33:27.953Z,100
2017-07-19T02:33:48.612Z,100
2017-07-19T02:34:09.262Z,100
2017-07-19T02:34:29.905Z,100
2017-07-19T02:34:50.570Z,100
2017-07-19T02:35:11.248Z,100
2017-07-19T02:35:31.905Z,100
2017-07-19T02:35:52.558Z,100
2017-07-19T02:36:13.207Z,100
2017-07-19T02:36:33.862Z,100
2017-07-19T02:36:54.536Z,100
2017-07-19T02:37:15.191Z,100
2017-07-19T02:37:35.838Z,100
2017-07-19T02:37:56.510Z,100
2017-07-19T02:38:17.153Z,100
2017-07-19T02:38:37.794Z,100
2017-07-19T02:38:58.426Z,100
2017-07-19T02:39:19.101Z,100
2017-07-19T02:39:39.755Z,100
2017-07-19T02:40:00.415Z,100
2017-07-19T02:40:21.114Z,100
2017-07-19T02:40:41.788Z,100
2017-07-19T02:41:02.465Z,100
2017-07-19T02:41:23.113Z,100
2017-07-19T02:41:43.772Z,100
2017-07-19T02:42:04.425Z,100
2017-07-19T02:42:25.071Z,100
2017-07-19T02:42:45.726Z,100
2017-07-19T02:43:06.384Z,100
2017-07-19T02:43:27.038Z,100
2017-07-19T02:43:47.691Z,100
2017-07-19T02:44:08.326Z,100
2017-07-19T02:44:28.967Z,100
2017-07-19T02:44:49.636Z,100
2017-07-19T02:45:10.301Z,100
2017-07-19T02:45:30.966Z,100
2017-07-19T02:45:51.623Z,100
2017-07-19T02:46:12.273Z,100
2017-07-19T02:46:32.929Z,100
2017-07-19T02:46:53.581Z,100
2017-07-19T02:47:14.279Z,100
2017-07-19T02:47:34.927Z,100
2017-07-19T02:47:55.574Z,100
2017-07-19T02:48:16.240Z,100
2017-07-19T02:48:36.911Z,100
2017-07-19T02:48:57.576Z,100
2017-07-19T02:49:18.235Z,100
2017-07-19T02:49:38.894Z,100
2017-07-19T02:49:59.539Z,100
2017-07-19T02:50:20.203Z,100
2017-07-19T02:50:40.840Z,100
2017-07-19T02:51:01.505Z,100
2017-07-19T02:51:22.185Z,100
2017-07-19T02:51:42.852Z,100
2017-07-19T02:52:03.513Z,100
2017-07-19T02:52:24.155Z,100
2017-07-19T02:52:44.809Z,100
2017-07-19T02:53:05.447Z,100
2017-07-19T02:53:26.089Z,100
2017-07-19T02:53:46.734Z,100
2017-07-19T02:54:07.443Z,100
2017-07-19T02:54:28.109Z,100
2017-07-19T02:54:48.764Z,100
2017-07-19T02:55:09.463Z,100
2017-07-19T02:55:30.128Z,100
2017-07-19T02:55:50.776Z,100
2017-07-19T02:56:11.434Z,100
2017-07-19T02:56:32.073Z,100
2017-07-19T02:56:52.724Z,100
2017-07-19T02:57:13.362Z,100
2017-07-19T02:57:34.009Z,100
2017-07-19T02:57:54.653Z,100
2017-07-19T02:58:15.301Z,100
2017-07-19T02:58:35.951Z,100
2017-07-19T02:58:56.612Z,100
2017-07-19T02:59:17.268Z,100
2017-07-19T02:59:37.915Z,100
2017-07-19T02:59:58.553Z,100
2017-07-19T03:00:19.207Z,100
2017-07-19T03:00:39.875Z,100
2017-07-19T03:01:00.550Z,100
2017-07-19T03:01:21.202Z,100
2017-07-19T03:01:41.872Z,100
2017-07-19T03:02:02.542Z,100
2017-07-19T03:02:23.187Z,100
2017-07-19T03:02:43.845Z,100
2017-07-19T03:03:04.484Z,100
2017-07-19T03:03:24.814Z,100
2017-07-19T03:03:45.486Z,100
2017-07-19T03:04:06.151Z,100
2017-07-19T03:04:26.796Z,100
2017-07-19T03:04:47.455Z,100
2017-07-19T03:05:08.099Z,100
2017-07-19T03:05:28.764Z,100
2017-07-19T03:05:49.409Z,100
2017-07-19T03:06:10.039Z,100
2017-07-19T03:06:30.719Z,100
2017-07-19T03:06:51.377Z,100
2017-07-19T03:07:12.065Z,100
2017-07-19T03:07:32.721Z,100
2017-07-19T03:07:53.368Z,100
2017-07-19T03:08:14.010Z,100
2017-07-19T03:08:34.672Z,100
2017-07-19T03:08:55.324Z,100
2017-07-19T03:09:15.972Z,100
2017-07-19T03:09:36.641Z,100
2017-07-19T03:09:57.298Z,100
2017-07-19T03:10:17.943Z,100
2017-07-19T03:10:38.598Z,100
2017-07-19T03:10:59.244Z,100
2017-07-19T03:11:19.890Z,100
2017-07-19T03:11:40.546Z,100
2017-07-19T03:12:01.194Z,100
2017-07-19T03:12:21.849Z,100
2017-07-19T03:12:42.511Z,100
2017-07-19T03:13:03.146Z,100
2017-07-19T03:13:23.820Z,100
2017-07-19T03:13:44.476Z,100
2017-07-19T03:14:05.120Z,100
2017-07-19T03:14:25.759Z,100
2017-07-19T03:14:46.409Z,100
2017-07-19T03:15:07.078Z,100
2017-07-19T03:15:27.724Z,100
2017-07-19T03:15:48.390Z,100
2017-07-19T03:16:09.035Z,100
2017-07-19T03:16:29.709Z,100
2017-07-19T03:16:50.353Z,100
2017-07-19T03:17:11.027Z,100
2017-07-19T03:17:31.702Z,100
2017-07-19T03:17:52.347Z,100
2017-07-19T03:18:13.003Z,100
2017-07-19T03:18:33.651Z,100
2017-07-19T03:18:54.283Z,100
2017-07-19T03:19:14.935Z,100
2017-07-19T03:19:35.577Z,100
2017-07-19T03:19:56.230Z,100
2017-07-19T03:20:16.873Z,100
2017-07-19T03:20:37.516Z,100
2017-07-19T03:20:58.163Z,100
2017-07-19T03:21:18.837Z,100
2017-07-19T03:21:39.486Z,100
2017-07-19T03:22:00.129Z,100
2017-07-19T03:22:20.769Z,100
2017-07-19T03:22:41.442Z,100
2017-07-19T03:23:02.084Z,100
2017-07-19T03:23:22.742Z,100
2017-07-19T03:23:43.392Z,100
2017-07-19T03:24:04.041Z,100
2017-07-19T03:24:24.701Z,100
2017-07-19T03:24:45.342Z,100
2017-07-19T03:25:05.991Z,100
2017-07-19T03:25:26.651Z,100
2017-07-19T03:25:47.292Z,100
2017-07-19T03:26:07.953Z,100
2017-07-19T03:26:28.610Z,100
2017-07-19T03:26:49.262Z,100
2017-07-19T03:27:09.909Z,100
2017-07-19T03:27:30.569Z,100
2017-07-19T03:27:51.253Z,100
2017-07-19T03:28:11.892Z,100
2017-07-19T03:28:32.541Z,100
2017-07-19T03:28:53.231Z,100
2017-07-19T03:29:13.886Z,100
2017-07-19T03:29:34.540Z,100
2017-07-19T03:29:55.206Z,100
2017-07-19T03:30:15.900Z,100
2017-07-19T03:30:36.550Z,100
2017-07-19T03:30:57.200Z,100
2017-07-19T03:31:17.840Z,100
2017-07-19T03:31:38.477Z,100
2017-07-19T03:31:59.118Z,100
2017-07-19T03:32:19.776Z,100
2017-07-19T03:32:40.442Z,100
2017-07-19T03:33:01.083Z,100
2017-07-19T03:33:21.721Z,100
2017-07-19T03:33:42.367Z,100
2017-07-19T03:34:03.048Z,100
2017-07-19T03:34:23.688Z,100
2017-07-19T03:34:44.346Z,100
2017-07-19T03:35:04.995Z,100
2017-07-19T03:35:25.662Z,100
2017-07-19T03:35:46.308Z,100
2017-07-19T03:36:06.959Z,100
2017-07-19T03:36:27.649Z,100
2017-07-19T03:36:48.311Z,100
2017-07-19T03:37:09.006Z,100
2017-07-19T03:37:29.663Z,100
2017-07-19T03:37:50.333Z,100
2017-07-19T03:38:10.985Z,100
2017-07-19T03:38:31.657Z,100
2017-07-19T03:38:52.295Z,100
2017-07-19T03:39:12.962Z,100
2017-07-19T03:39:33.641Z,100
2017-07-19T03:39:54.302Z,100
2017-07-19T03:40:14.971Z,100
2017-07-19T03:40:35.652Z,100
2017-07-19T03:40:56.307Z,100
2017-07-19T03:41:16.961Z,100
2017-07-19T03:41:37.618Z,100
2017-07-19T03:41:58.256Z,100
2017-07-19T03:42:18.907Z,100
2017-07-19T03:42:39.575Z,100
2017-07-19T03:43:00.278Z,100
2017-07-19T03:43:20.938Z,100
2017-07-19T03:43:41.592Z,100
2017-07-19T03:44:02.230Z,100
2017-07-19T03:44:22.873Z,100
2017-07-19T03:44:43.644Z,100
2017-07-19T03:45:04.317Z,100
2017-07-19T03:45:24.959Z,100
2017-07-19T03:45:45.611Z,100
2017-07-19T03:46:06.254Z,100
2017-07-19T03:46:26.921Z,100
2017-07-19T03:46:47.561Z,100
2017-07-19T03:47:08.221Z,100
2017-07-19T03:47:28.865Z,100
2017-07-19T03:47:49.508Z,100
2017-07-19T03:48:10.183Z,100
2017-07-19T03:48:30.846Z,100
2017-07-19T03:48:51.518Z,100
2017-07-19T03:49:12.163Z,100
2017-07-19T03:49:32.842Z,100
2017-07-19T03:49:53.498Z,100
2017-07-19T03:50:14.165Z,100
2017-07-19T03:50:34.842Z,100
2017-07-19T03:50:55.513Z,100
2017-07-19T03:51:16.181Z,100
2017-07-19T03:51:36.836Z,100
2017-07-19T03:51:57.496Z,100
2017-07-19T03:52:18.161Z,100
2017-07-19T03:52:38.822Z,100
2017-07-19T03:52:59.488Z,100
2017-07-19T03:53:20.142Z,100
2017-07-19T03:53:40.797Z,100
2017-07-19T03:54:01.459Z,100
2017-07-19T03:54:22.111Z,100
2017-07-19T03:54:42.766Z,100
2017-07-19T03:55:03.431Z,100
2017-07-19T03:55:24.078Z,100
2017-07-19T03:55:44.735Z,100
2017-07-19T03:56:05.376Z,100
2017-07-19T03:56:26.034Z,100
2017-07-19T03:56:46.701Z,100
2017-07-19T03:57:07.368Z,100
2017-07-19T03:57:28.031Z,100
2017-07-19T03:57:48.692Z,100
2017-07-19T03:58:09.338Z,100
2017-07-19T03:58:29.998Z,100
2017-07-19T03:58:50.655Z,100
2017-07-19T03:59:11.304Z,100
2017-07-19T03:59:31.942Z,100
2017-07-19T03:59:52.580Z,100
2017-07-19T04:00:13.233Z,100
2017-07-19T04:00:33.867Z,100
2017-07-19T04:00:54.530Z,100
2017-07-19T04:01:15.190Z,100
2017-07-19T04:01:35.838Z,100
2017-07-19T04:01:56.495Z,100
2017-07-19T04:02:17.149Z,100
2017-07-19T04:02:37.828Z,100
2017-07-19T04:02:58.500Z,100
2017-07-19T04:03:19.153Z,100
2017-07-19T04:03:39.799Z,100
2017-07-19T04:04:00.475Z,100
2017-07-19T04:04:21.117Z,100
2017-07-19T04:04:41.788Z,100
2017-07-19T04:05:02.447Z,100
2017-07-19T04:05:23.129Z,100
2017-07-19T04:05:43.789Z,100
2017-07-19T04:06:04.444Z,100
2017-07-19T04:06:25.088Z,100
2017-07-19T04:06:45.744Z,100
2017-07-19T04:07:06.421Z,100
2017-07-19T04:07:27.063Z,100
2017-07-19T04:07:47.715Z,100
2017-07-19T04:08:08.366Z,100
2017-07-19T04:08:29.020Z,100
2017-07-19T04:08:49.675Z,100
2017-07-19T04:09:10.320Z,100
2017-07-19T04:09:30.970Z,100
2017-07-19T04:09:51.629Z,100
2017-07-19T04:10:12.300Z,100
2017-07-19T04:10:32.980Z,100
2017-07-19T04:10:53.622Z,100
2017-07-19T04:11:14.305Z,100
2017-07-19T04:11:34.974Z,100
2017-07-19T04:11:55.639Z,100
2017-07-19T04:12:16.293Z,100
2017-07-19T04:12:36.950Z,100
2017-07-19T04:12:57.631Z,100
2017-07-19T04:13:18.288Z,100
2017-07-19T04:13:38.952Z,100
2017-07-19T04:13:59.589Z,100
2017-07-19T04:14:20.234Z,100
2017-07-19T04:14:40.892Z,100
2017-07-19T04:15:01.578Z,100
2017-07-19T04:15:22.239Z,100
2017-07-19T04:15:42.881Z,100
2017-07-19T04:16:03.544Z,100
2017-07-19T04:16:24.226Z,100
2017-07-19T04:16:44.885Z,100
2017-07-19T04:17:05.539Z,100
2017-07-19T04:17:26.194Z,100
2017-07-19T04:17:46.862Z,100
2017-07-19T04:18:07.590Z,100
2017-07-19T04:18:28.244Z,100
2017-07-19T04:18:48.894Z,100
2017-07-19T04:19:09.556Z,100
2017-07-19T04:19:30.218Z,100
2017-07-19T04:19:50.866Z,100
2017-07-19T04:20:11.538Z,100
2017-07-19T04:20:32.193Z,100
2017-07-19T04:20:52.850Z,100
2017-07-19T04:21:13.504Z,100
2017-07-19T04:21:34.164Z,100
2017-07-19T04:21:54.807Z,100
2017-07-19T04:22:15.457Z,100
2017-07-19T04:22:36.121Z,100
2017-07-19T04:22:56.764Z,100
2017-07-19T04:23:17.419Z,100
2017-07-19T04:23:38.071Z,100
2017-07-19T04:23:58.708Z,100
2017-07-19T04:24:19.350Z,100
2017-07-19T04:24:40.039Z,99.8
2017-07-19T04:25:00.711Z,100
2017-07-19T04:25:21.381Z,99.8
2017-07-19T04:25:42.024Z,100
2017-07-19T04:26:02.662Z,99.8
2017-07-19T04:26:23.337Z,100
2017-07-19T04:26:43.989Z,100
2017-07-19T04:27:04.628Z,99.8
2017-07-19T04:27:25.307Z,99.9
2017-07-19T04:27:45.998Z,99.5
2017-07-19T04:28:06.649Z,100
2017-07-19T04:28:27.314Z,99.8
2017-07-19T04:28:47.989Z,100
2017-07-19T04:29:08.638Z,99.9
2017-07-19T04:29:29.302Z,100
2017-07-19T04:29:49.955Z,99.9
2017-07-19T04:30:10.613Z,100
2017-07-19T04:30:31.271Z,100
2017-07-19T04:30:51.915Z,99.8
2017-07-19T04:31:12.595Z,100
2017-07-19T04:31:33.246Z,99.4
2017-07-19T04:31:53.905Z,99.7
2017-07-19T04:32:14.592Z,99.7
2017-07-19T04:32:35.286Z,99.4
2017-07-19T04:32:55.953Z,99
2017-07-19T04:33:16.606Z,99.9
2017-07-19T04:33:37.269Z,99.7
2017-07-19T04:33:57.929Z,99.5
2017-07-19T04:34:18.587Z,99
2017-07-19T04:34:39.259Z,99
2017-07-19T04:34:59.945Z,99
2017-07-19T04:35:20.665Z,99.1
2017-07-19T04:35:41.365Z,99.1
2017-07-19T04:36:02.016Z,99
2017-07-19T04:36:22.677Z,98.9
2017-07-19T04:36:43.341Z,99.4
2017-07-19T04:37:03.999Z,99.2
2017-07-19T04:37:24.659Z,99.4
2017-07-19T04:37:45.313Z,100
2017-07-19T04:38:05.977Z,100
2017-07-19T04:38:26.659Z,99.7
2017-07-19T04:38:47.295Z,99.6
2017-07-19T04:39:07.948Z,99.6
2017-07-19T04:39:28.611Z,100
2017-07-19T04:39:49.272Z,100
2017-07-19T04:40:09.929Z,99.9
2017-07-19T04:40:30.616Z,100
2017-07-19T04:40:51.263Z,100
2017-07-19T04:41:11.922Z,100
2017-07-19T04:41:32.569Z,99.8
2017-07-19T04:41:53.273Z,99.7
2017-07-19T04:42:13.948Z,99.9
2017-07-19T04:42:34.645Z,99.8
2017-07-19T04:42:55.321Z,99
2017-07-19T04:43:16.001Z,99.3
2017-07-19T04:43:36.651Z,98.9